This is the latest recevied weather packets stored in our database for station/object N4HAC. If no packets are shown the sender has not sent any weather packets the latest 10 day(s).
| Time | Temp. | Humidity | Pressure | Rain* | Wind** | Luminosity | Snow |
|---|---|---|---|---|---|---|---|
| 1777619472 | 7.78° C | 74% | 1009.2 hPa | 0 mm | - | 0 W/m² | - |
| 1777619168 | 7.78° C | 75% | 1009.2 hPa | 0 mm | - | 0 W/m² | - |
| 1777618863 | 7.22° C | 77% | 1009.4 hPa | 0 mm | - | 0 W/m² | - |
| 1777618562 | 5° C | 88% | 1009.1 hPa | 0 mm | - | 0 W/m² | - |
| 1777618259 | 3.33° C | 95% | 1009.5 hPa | 0 mm | - | 0 W/m² | - |
| 1777617956 | 3.33° C | 94% | 1009.1 hPa | 0 mm | - | 0 W/m² | - |
| 1777617652 | 3.33° C | 94% | 1009.1 hPa | 0 mm | - | 0 W/m² | - |
| 1777617347 | 3.33° C | 93% | 1009.2 hPa | 0 mm | - | 0 W/m² | - |
| 1777617046 | 3.89° C | 95% | 1009.2 hPa | 0 mm | - | 0 W/m² | - |
| 1777616745 | 3.33° C | 95% | 1009.5 hPa | 0 mm | - | 0 W/m² | - |
| 1777616440 | 3.33° C | 94% | 1009.5 hPa | 0 mm | - | 0 W/m² | - |
| 1777616137 | 3.89° C | 94% | 1009.4 hPa | 0 mm | - | 0 W/m² | - |
| 1777615834 | 3.33° C | 94% | 1009.5 hPa | 0 mm | - | 0 W/m² | - |
| 1777615532 | 3.89° C | 94% | 1009.5 hPa | 0 mm | - | 0 W/m² | - |
| 1777615227 | 3.89° C | 94% | 1009.5 hPa | 0 mm | - | 0 W/m² | - |
| 1777614927 | 3.89° C | 93% | 1009.6 hPa | 0 mm | - | 0 W/m² | - |
| 1777614624 | 3.89° C | 92% | 1009.4 hPa | 0 mm | - | 0 W/m² | - |
| 1777614319 | 3.89° C | 92% | 1009.5 hPa | 0 mm | - | 0 W/m² | - |
| 1777614015 | 3.89° C | 91% | 1009.6 hPa | 0 mm | - | 0 W/m² | - |
| 1777613710 | 3.89° C | 90% | 1009.5 hPa | 0 mm | - | 0 W/m² | - |
| 1777613409 | 4.44° C | 89% | 1009.5 hPa | 0 mm | - | 0 W/m² | - |
| 1777613104 | 4.44° C | 88% | 1009.4 hPa | 0 mm | - | 0 W/m² | - |
| 1777612801 | 4.44° C | 86% | 1009.5 hPa | 0 mm | - | 0 W/m² | - |
| 1777612497 | 5.56° C | 84% | 1009.5 hPa | 0 mm | - | 0 W/m² | - |
| 1777612192 | 4.44° C | 88% | 1009.6 hPa | 0 mm | - | 0 W/m² | - |
* Rain latest hour (hover to see other rain measurements)
** Current wind speed in m/s (hover to see current wind gust speed)